หน้าหลัก
METAR-TAF:

METAR-TAF

ท่าอากาศยาน :

Seward, อะแลสกา, สหรัฐอเมริกา

ละติจูด: 60-07N, ลองจิจูด: 149-27W, ความสูง: 9 ม.

การสังเกตสภาพอากาศปัจจุบัน

รายงานได้ทำขึ้นเมื่อ 56 นาทีที่แล้ว ณ เวลา 22:53 UTC
ลม 6 นอตจากใต้/ตะวันออกเฉียงใต้
อุณหภูมิ 8°C
ความชื้น 71%
ความกดอากาศ 1006 hPa
ทัศนวิสัย: 16.1 กม.
มีเมฆมาก มืดครึ้มที่ความสูง 2200 ฟุต

METAR: PAWD 242253Z AUTO 16006KT 10SM OVC022 08/03 A2970 RMK AO2 SLP058 T00780033 TSNO

เวลา: 15:49 (23:49 UTC)


TAF: หายไป

สังเกตการณ์สภาพอากาศและพยากรณ์อากาศของสนามบินมากกว่า 4000 แห่ง (รายงาน METAR และ TAF).

สถานีที่ดูได้จะแสดงไว้ด้วยจุดสีเหลืองและสีแดงบนแผนที่.

เลื่อนเมาส์ไปเหนือจุดเพื่อดูชื่อสถานี.

แล้วคลิกเพื่อดูสังเกตการณ์และการพยากรณ์สภาพอากาศ.

ในการเปลี่ยนแผนที่: คลิกที่ปุ่มสีเขียวที่มีกากบาทสีดำเพื่อซูมเข้า; ที่ปุ่มสีเขียวที่มีขีดเพื่อซูมออก; หรือที่ลูกศรสีเขียวเพื่อไปยังแผนที่ที่อยู่ติดกัน.


METAR-TAF: